sensor_id;sensor_type;location;lat;lon;timestamp;P1;durP1;ratioP1;P2;durP2;ratioP2
84231;SDS011;74368;48.022;13.830;2024-03-02T00:02:00;83.80;;;30.83;;
84231;SDS011;74368;48.022;13.830;2024-03-02T00:04:26;144.18;;;35.95;;
84231;SDS011;74368;48.022;13.830;2024-03-02T00:06:52;219.95;;;39.53;;
84231;SDS011;74368;48.022;13.830;2024-03-02T00:09:19;150.82;;;34.80;;
84231;SDS011;74368;48.022;13.830;2024-03-02T00:11:45;216.05;;;36.95;;
84231;SDS011;74368;48.022;13.830;2024-03-02T00:14:10;179.93;;;33.97;;
84231;SDS011;74368;48.022;13.830;2024-03-02T00:16:36;134.48;;;34.70;;
84231;SDS011;74368;48.022;13.830;2024-03-02T00:19:02;183.10;;;37.97;;
84231;SDS011;74368;48.022;13.830;2024-03-02T00:21:29;207.38;;;38.55;;
84231;SDS011;74368;48.022;13.830;2024-03-02T00:23:56;133.55;;;36.55;;
84231;SDS011;74368;48.022;13.830;2024-03-02T00:26:22;169.93;;;37.67;;
84231;SDS011;74368;48.022;13.830;2024-03-02T00:28:47;117.10;;;35.38;;
84231;SDS011;74368;48.022;13.830;2024-03-02T00:31:15;150.63;;;37.97;;
84231;SDS011;74368;48.022;13.830;2024-03-02T00:33:44;245.75;;;38.85;;
84231;SDS011;74368;48.022;13.830;2024-03-02T00:36:14;168.20;;;34.92;;
84231;SDS011;74368;48.022;13.830;2024-03-02T00:38:45;146.77;;;33.17;;
84231;SDS011;74368;48.022;13.830;2024-03-02T00:41:15;168.32;;;35.80;;
84231;SDS011;74368;48.022;13.830;2024-03-02T00:46:23;250.27;;;43.38;;
84231;SDS011;74368;48.022;13.830;2024-03-02T00:51:22;112.15;;;33.45;;
84231;SDS011;74368;48.022;13.830;2024-03-02T00:53:51;125.88;;;37.67;;
84231;SDS011;74368;48.022;13.830;2024-03-02T00:56:17;115.63;;;35.70;;
84231;SDS011;74368;48.022;13.830;2024-03-02T00:58:43;96.75;;;32.63;;
84231;SDS011;74368;48.022;13.830;2024-03-02T01:01:08;104.53;;;32.53;;
84231;SDS011;74368;48.022;13.830;2024-03-02T01:03:34;149.80;;;36.67;;
84231;SDS011;74368;48.022;13.830;2024-03-02T01:06:00;112.78;;;35.35;;
84231;SDS011;74368;48.022;13.830;2024-03-02T01:08:50;154.35;;;35.92;;
84231;SDS011;74368;48.022;13.830;2024-03-02T01:11:16;134.82;;;35.33;;
84231;SDS011;74368;48.022;13.830;2024-03-02T01:13:43;150.50;;;34.78;;
84231;SDS011;74368;48.022;13.830;2024-03-02T01:16:08;159.00;;;35.83;;
84231;SDS011;74368;48.022;13.830;2024-03-02T01:18:34;285.70;;;43.30;;
84231;SDS011;74368;48.022;13.830;2024-03-02T01:20:59;167.70;;;36.45;;
84231;SDS011;74368;48.022;13.830;2024-03-02T01:23:24;126.07;;;36.42;;
84231;SDS011;74368;48.022;13.830;2024-03-02T01:25:50;169.07;;;35.20;;
84231;SDS011;74368;48.022;13.830;2024-03-02T01:28:16;161.35;;;37.03;;
84231;SDS011;74368;48.022;13.830;2024-03-02T01:30:42;151.88;;;38.38;;
84231;SDS011;74368;48.022;13.830;2024-03-02T01:33:07;146.05;;;36.58;;
84231;SDS011;74368;48.022;13.830;2024-03-02T01:35:33;171.45;;;37.03;;
84231;SDS011;74368;48.022;13.830;2024-03-02T01:37:59;195.57;;;40.45;;
84231;SDS011;74368;48.022;13.830;2024-03-02T01:40:25;121.47;;;35.67;;
84231;SDS011;74368;48.022;13.830;2024-03-02T01:42:51;115.00;;;35.60;;
84231;SDS011;74368;48.022;13.830;2024-03-02T01:45:18;102.13;;;32.63;;
84231;SDS011;74368;48.022;13.830;2024-03-02T01:47:43;118.75;;;33.15;;
84231;SDS011;74368;48.022;13.830;2024-03-02T01:50:10;130.30;;;37.40;;
84231;SDS011;74368;48.022;13.830;2024-03-02T01:52:36;116.20;;;35.63;;
84231;SDS011;74368;48.022;13.830;2024-03-02T01:55:02;148.65;;;37.15;;
84231;SDS011;74368;48.022;13.830;2024-03-02T01:57:27;143.38;;;38.42;;
84231;SDS011;74368;48.022;13.830;2024-03-02T01:59:52;117.05;;;36.80;;
84231;SDS011;74368;48.022;13.830;2024-03-02T02:02:18;235.82;;;39.03;;
84231;SDS011;74368;48.022;13.830;2024-03-02T02:04:45;207.35;;;38.85;;
84231;SDS011;74368;48.022;13.830;2024-03-02T02:07:10;151.85;;;35.72;;
84231;SDS011;74368;48.022;13.830;2024-03-02T02:09:36;164.02;;;39.70;;
84231;SDS011;74368;48.022;13.830;2024-03-02T02:12:01;198.55;;;36.63;;
84231;SDS011;74368;48.022;13.830;2024-03-02T02:14:28;178.43;;;39.88;;
84231;SDS011;74368;48.022;13.830;2024-03-02T02:16:53;186.70;;;39.80;;
84231;SDS011;74368;48.022;13.830;2024-03-02T02:19:19;170.98;;;39.03;;
84231;SDS011;74368;48.022;13.830;2024-03-02T02:21:44;377.83;;;44.90;;
84231;SDS011;74368;48.022;13.830;2024-03-02T02:24:10;296.20;;;40.05;;
84231;SDS011;74368;48.022;13.830;2024-03-02T02:26:35;164.50;;;39.92;;
84231;SDS011;74368;48.022;13.830;2024-03-02T02:29:01;361.63;;;45.45;;
84231;SDS011;74368;48.022;13.830;2024-03-02T02:31:26;293.92;;;44.08;;
84231;SDS011;74368;48.022;13.830;2024-03-02T02:33:51;151.43;;;37.50;;
84231;SDS011;74368;48.022;13.830;2024-03-02T02:36:16;181.95;;;36.65;;
84231;SDS011;74368;48.022;13.830;2024-03-02T02:38:43;140.68;;;36.47;;
84231;SDS011;74368;48.022;13.830;2024-03-02T02:41:11;312.92;;;45.10;;
84231;SDS011;74368;48.022;13.830;2024-03-02T02:43:37;166.05;;;35.15;;
84231;SDS011;74368;48.022;13.830;2024-03-02T02:46:04;260.90;;;39.58;;
84231;SDS011;74368;48.022;13.830;2024-03-02T02:48:55;267.38;;;39.58;;
84231;SDS011;74368;48.022;13.830;2024-03-02T02:54:37;236.57;;;45.15;;
84231;SDS011;74368;48.022;13.830;2024-03-02T02:57:02;173.27;;;39.47;;
84231;SDS011;74368;48.022;13.830;2024-03-02T02:59:28;237.82;;;46.45;;
84231;SDS011;74368;48.022;13.830;2024-03-02T03:01:53;140.70;;;34.63;;
84231;SDS011;74368;48.022;13.830;2024-03-02T03:04:19;117.45;;;32.13;;
84231;SDS011;74368;48.022;13.830;2024-03-02T03:10:26;236.15;;;34.17;;
84231;SDS011;74368;48.022;13.830;2024-03-02T03:12:52;123.70;;;28.30;;
84231;SDS011;74368;48.022;13.830;2024-03-02T03:15:18;184.40;;;36.45;;
84231;SDS011;74368;48.022;13.830;2024-03-02T03:17:43;316.15;;;38.83;;
84231;SDS011;74368;48.022;13.830;2024-03-02T03:20:09;188.60;;;34.72;;
84231;SDS011;74368;48.022;13.830;2024-03-02T03:22:35;141.98;;;33.55;;
84231;SDS011;74368;48.022;13.830;2024-03-02T03:25:01;237.70;;;40.00;;
84231;SDS011;74368;48.022;13.830;2024-03-02T03:27:26;134.15;;;33.38;;
84231;SDS011;74368;48.022;13.830;2024-03-02T03:29:52;125.20;;;30.65;;
84231;SDS011;74368;48.022;13.830;2024-03-02T03:32:17;147.20;;;31.58;;
84231;SDS011;74368;48.022;13.830;2024-03-02T03:34:42;211.35;;;34.40;;
84231;SDS011;74368;48.022;13.830;2024-03-02T03:37:08;258.67;;;37.40;;
84231;SDS011;74368;48.022;13.830;2024-03-02T03:39:33;219.13;;;34.75;;
84231;SDS011;74368;48.022;13.830;2024-03-02T03:42:00;141.27;;;32.35;;
84231;SDS011;74368;48.022;13.830;2024-03-02T03:44:25;333.75;;;43.97;;
84231;SDS011;74368;48.022;13.830;2024-03-02T03:46:51;340.15;;;44.78;;
84231;SDS011;74368;48.022;13.830;2024-03-02T03:49:16;150.45;;;34.10;;
84231;SDS011;74368;48.022;13.830;2024-03-02T03:51:42;132.85;;;29.90;;
84231;SDS011;74368;48.022;13.830;2024-03-02T03:54:07;136.45;;;30.52;;
84231;SDS011;74368;48.022;13.830;2024-03-02T03:56:33;115.63;;;33.17;;
84231;SDS011;74368;48.022;13.830;2024-03-02T03:58:58;134.40;;;32.92;;
84231;SDS011;74368;48.022;13.830;2024-03-02T04:01:24;241.63;;;38.28;;
84231;SDS011;74368;48.022;13.830;2024-03-02T04:03:50;190.15;;;34.70;;
84231;SDS011;74368;48.022;13.830;2024-03-02T04:06:15;143.98;;;34.20;;
84231;SDS011;74368;48.022;13.830;2024-03-02T04:08:42;202.07;;;37.10;;
84231;SDS011;74368;48.022;13.830;2024-03-02T04:11:08;280.15;;;40.55;;
84231;SDS011;74368;48.022;13.830;2024-03-02T04:13:33;191.70;;;38.40;;
84231;SDS011;74368;48.022;13.830;2024-03-02T04:15:59;119.70;;;32.10;;
84231;SDS011;74368;48.022;13.830;2024-03-02T04:18:24;111.90;;;30.05;;
84231;SDS011;74368;48.022;13.830;2024-03-02T04:20:49;110.60;;;30.13;;
84231;SDS011;74368;48.022;13.830;2024-03-02T04:23:15;142.82;;;30.02;;
84231;SDS011;74368;48.022;13.830;2024-03-02T04:25:40;149.40;;;32.92;;
84231;SDS011;74368;48.022;13.830;2024-03-02T04:28:05;114.43;;;31.60;;
84231;SDS011;74368;48.022;13.830;2024-03-02T04:30:31;152.93;;;32.70;;
84231;SDS011;74368;48.022;13.830;2024-03-02T04:32:56;177.60;;;35.28;;
84231;SDS011;74368;48.022;13.830;2024-03-02T04:35:21;113.60;;;31.80;;
84231;SDS011;74368;48.022;13.830;2024-03-02T04:37:47;170.60;;;34.88;;
84231;SDS011;74368;48.022;13.830;2024-03-02T04:40:12;190.90;;;34.65;;
84231;SDS011;74368;48.022;13.830;2024-03-02T04:42:38;201.77;;;36.42;;
84231;SDS011;74368;48.022;13.830;2024-03-02T04:45:03;224.93;;;39.97;;
84231;SDS011;74368;48.022;13.830;2024-03-02T04:47:29;157.50;;;36.30;;
84231;SDS011;74368;48.022;13.830;2024-03-02T04:49:54;154.93;;;35.47;;
84231;SDS011;74368;48.022;13.830;2024-03-02T04:52:19;129.68;;;32.35;;
84231;SDS011;74368;48.022;13.830;2024-03-02T04:54:45;141.18;;;33.78;;
84231;SDS011;74368;48.022;13.830;2024-03-02T04:57:28;125.45;;;32.70;;
84231;SDS011;74368;48.022;13.830;2024-03-02T04:59:54;166.65;;;33.00;;
84231;SDS011;74368;48.022;13.830;2024-03-02T05:02:19;238.20;;;37.17;;
84231;SDS011;74368;48.022;13.830;2024-03-02T05:04:44;180.05;;;31.50;;
84231;SDS011;74368;48.022;13.830;2024-03-02T05:07:10;297.60;;;43.67;;
84231;SDS011;74368;48.022;13.830;2024-03-02T05:09:35;249.27;;;34.33;;
84231;SDS011;74368;48.022;13.830;2024-03-02T05:12:00;168.90;;;32.85;;
84231;SDS011;74368;48.022;13.830;2024-03-02T05:14:45;220.95;;;34.85;;
84231;SDS011;74368;48.022;13.830;2024-03-02T05:17:11;163.93;;;32.30;;
84231;SDS011;74368;48.022;13.830;2024-03-02T05:19:36;127.90;;;30.17;;
84231;SDS011;74368;48.022;13.830;2024-03-02T05:22:01;170.85;;;33.03;;
84231;SDS011;74368;48.022;13.830;2024-03-02T05:24:28;149.20;;;30.92;;
84231;SDS011;74368;48.022;13.830;2024-03-02T05:26:53;160.75;;;32.10;;
84231;SDS011;74368;48.022;13.830;2024-03-02T05:29:19;126.40;;;31.45;;
84231;SDS011;74368;48.022;13.830;2024-03-02T05:31:44;111.85;;;32.22;;
84231;SDS011;74368;48.022;13.830;2024-03-02T05:34:09;137.05;;;31.65;;
84231;SDS011;74368;48.022;13.830;2024-03-02T05:36:35;287.38;;;39.40;;
84231;SDS011;74368;48.022;13.830;2024-03-02T05:39:00;187.10;;;36.03;;
84231;SDS011;74368;48.022;13.830;2024-03-02T05:41:26;155.27;;;34.72;;
84231;SDS011;74368;48.022;13.830;2024-03-02T05:43:51;146.70;;;32.63;;
84231;SDS011;74368;48.022;13.830;2024-03-02T05:46:17;150.23;;;35.15;;
84231;SDS011;74368;48.022;13.830;2024-03-02T05:48:42;137.88;;;33.88;;
84231;SDS011;74368;48.022;13.830;2024-03-02T05:51:07;145.52;;;34.53;;
84231;SDS011;74368;48.022;13.830;2024-03-02T05:53:32;165.43;;;35.45;;
84231;SDS011;74368;48.022;13.830;2024-03-02T05:55:58;118.63;;;32.53;;
84231;SDS011;74368;48.022;13.830;2024-03-02T05:58:24;148.88;;;37.40;;
84231;SDS011;74368;48.022;13.830;2024-03-02T06:00:49;343.88;;;48.10;;
84231;SDS011;74368;48.022;13.830;2024-03-02T06:03:14;195.98;;;36.30;;
84231;SDS011;74368;48.022;13.830;2024-03-02T06:05:40;154.52;;;34.38;;
84231;SDS011;74368;48.022;13.830;2024-03-02T06:08:05;227.00;;;39.28;;
84231;SDS011;74368;48.022;13.830;2024-03-02T06:10:32;174.57;;;37.10;;
84231;SDS011;74368;48.022;13.830;2024-03-02T06:12:57;139.55;;;35.90;;
84231;SDS011;74368;48.022;13.830;2024-03-02T06:15:24;118.00;;;31.38;;
84231;SDS011;74368;48.022;13.830;2024-03-02T06:17:49;160.70;;;35.55;;
84231;SDS011;74368;48.022;13.830;2024-03-02T06:20:14;266.33;;;39.03;;
84231;SDS011;74368;48.022;13.830;2024-03-02T06:22:40;152.13;;;33.58;;
84231;SDS011;74368;48.022;13.830;2024-03-02T06:25:05;205.90;;;39.50;;
84231;SDS011;74368;48.022;13.830;2024-03-02T06:27:31;105.90;;;33.42;;
84231;SDS011;74368;48.022;13.830;2024-03-02T06:29:56;141.23;;;35.88;;
84231;SDS011;74368;48.022;13.830;2024-03-02T06:32:21;128.25;;;36.85;;
84231;SDS011;74368;48.022;13.830;2024-03-02T06:34:48;110.88;;;34.90;;
84231;SDS011;74368;48.022;13.830;2024-03-02T06:37:13;149.00;;;33.72;;
84231;SDS011;74368;48.022;13.830;2024-03-02T06:39:38;240.25;;;42.40;;
84231;SDS011;74368;48.022;13.830;2024-03-02T06:42:04;168.57;;;37.22;;
84231;SDS011;74368;48.022;13.830;2024-03-02T06:44:29;169.45;;;35.42;;
84231;SDS011;74368;48.022;13.830;2024-03-02T06:46:54;193.88;;;35.80;;
84231;SDS011;74368;48.022;13.830;2024-03-02T06:49:20;209.45;;;36.40;;
84231;SDS011;74368;48.022;13.830;2024-03-02T06:51:45;166.05;;;34.13;;
84231;SDS011;74368;48.022;13.830;2024-03-02T06:54:10;181.45;;;33.15;;
84231;SDS011;74368;48.022;13.830;2024-03-02T06:56:36;279.58;;;42.05;;
84231;SDS011;74368;48.022;13.830;2024-03-02T06:59:03;204.50;;;36.65;;
84231;SDS011;74368;48.022;13.830;2024-03-02T07:01:29;212.23;;;34.50;;
84231;SDS011;74368;48.022;13.830;2024-03-02T07:03:54;133.50;;;32.85;;
84231;SDS011;74368;48.022;13.830;2024-03-02T07:06:19;148.10;;;32.80;;
84231;SDS011;74368;48.022;13.830;2024-03-02T07:08:47;169.20;;;33.65;;
84231;SDS011;74368;48.022;13.830;2024-03-02T07:11:12;163.95;;;33.22;;
84231;SDS011;74368;48.022;13.830;2024-03-02T07:14:03;158.30;;;35.05;;
84231;SDS011;74368;48.022;13.830;2024-03-02T07:16:28;101.97;;;32.13;;
84231;SDS011;74368;48.022;13.830;2024-03-02T07:18:55;124.63;;;31.38;;
84231;SDS011;74368;48.022;13.830;2024-03-02T07:21:21;167.02;;;32.08;;
84231;SDS011;74368;48.022;13.830;2024-03-02T07:23:48;164.63;;;34.25;;
84231;SDS011;74368;48.022;13.830;2024-03-02T07:26:13;172.00;;;33.63;;
84231;SDS011;74368;48.022;13.830;2024-03-02T07:28:40;118.43;;;35.65;;
84231;SDS011;74368;48.022;13.830;2024-03-02T07:31:06;122.10;;;30.42;;
84231;SDS011;74368;48.022;13.830;2024-03-02T07:33:32;104.45;;;27.90;;
84231;SDS011;74368;48.022;13.830;2024-03-02T07:35:58;208.40;;;33.88;;
84231;SDS011;74368;48.022;13.830;2024-03-02T07:38:25;114.78;;;29.40;;
84231;SDS011;74368;48.022;13.830;2024-03-02T07:40:51;126.40;;;31.15;;
84231;SDS011;74368;48.022;13.830;2024-03-02T07:43:18;83.07;;;30.35;;
84231;SDS011;74368;48.022;13.830;2024-03-02T07:45:44;80.70;;;28.67;;
84231;SDS011;74368;48.022;13.830;2024-03-02T07:48:10;80.88;;;30.40;;
84231;SDS011;74368;48.022;13.830;2024-03-02T07:50:36;84.18;;;28.02;;
84231;SDS011;74368;48.022;13.830;2024-03-02T07:53:02;76.28;;;26.92;;
84231;SDS011;74368;48.022;13.830;2024-03-02T07:55:28;78.43;;;26.63;;
84231;SDS011;74368;48.022;13.830;2024-03-02T07:57:54;120.40;;;28.60;;
84231;SDS011;74368;48.022;13.830;2024-03-02T08:00:20;109.32;;;28.60;;
84231;SDS011;74368;48.022;13.830;2024-03-02T08:02:45;76.53;;;27.35;;
84231;SDS011;74368;48.022;13.830;2024-03-02T08:05:11;85.20;;;28.95;;
84231;SDS011;74368;48.022;13.830;2024-03-02T08:07:36;71.88;;;29.10;;
84231;SDS011;74368;48.022;13.830;2024-03-02T08:10:02;71.82;;;27.70;;
84231;SDS011;74368;48.022;13.830;2024-03-02T08:16:08;61.33;;;24.73;;
84231;SDS011;74368;48.022;13.830;2024-03-02T08:18:34;62.72;;;26.52;;
84231;SDS011;74368;48.022;13.830;2024-03-02T08:20:59;63.40;;;25.38;;
84231;SDS011;74368;48.022;13.830;2024-03-02T08:23:25;68.38;;;25.55;;
84231;SDS011;74368;48.022;13.830;2024-03-02T08:25:50;67.00;;;25.33;;
84231;SDS011;74368;48.022;13.830;2024-03-02T08:28:16;65.20;;;27.65;;
84231;SDS011;74368;48.022;13.830;2024-03-02T08:30:42;70.50;;;27.17;;
84231;SDS011;74368;48.022;13.830;2024-03-02T08:33:07;70.18;;;26.77;;
84231;SDS011;74368;48.022;13.830;2024-03-02T08:35:33;68.45;;;26.83;;
84231;SDS011;74368;48.022;13.830;2024-03-02T08:38:01;69.75;;;27.60;;
84231;SDS011;74368;48.022;13.830;2024-03-02T08:40:28;67.18;;;28.23;;
84231;SDS011;74368;48.022;13.830;2024-03-02T08:42:53;49.97;;;22.23;;
84231;SDS011;74368;48.022;13.830;2024-03-02T08:45:19;56.22;;;24.95;;
84231;SDS011;74368;48.022;13.830;2024-03-02T08:47:45;54.03;;;23.60;;
84231;SDS011;74368;48.022;13.830;2024-03-02T08:50:11;61.15;;;23.55;;
84231;SDS011;74368;48.022;13.830;2024-03-02T08:52:36;50.90;;;23.98;;
84231;SDS011;74368;48.022;13.830;2024-03-02T08:55:01;60.05;;;26.20;;
84231;SDS011;74368;48.022;13.830;2024-03-02T08:57:27;61.95;;;25.48;;
84231;SDS011;74368;48.022;13.830;2024-03-02T08:59:53;62.25;;;25.63;;
84231;SDS011;74368;48.022;13.830;2024-03-02T09:02:18;53.28;;;23.67;;
84231;SDS011;74368;48.022;13.830;2024-03-02T09:04:43;58.05;;;25.08;;
84231;SDS011;74368;48.022;13.830;2024-03-02T09:07:09;62.03;;;24.50;;
84231;SDS011;74368;48.022;13.830;2024-03-02T09:09:34;53.42;;;23.70;;
84231;SDS011;74368;48.022;13.830;2024-03-02T09:12:00;57.30;;;25.27;;
84231;SDS011;74368;48.022;13.830;2024-03-02T09:14:25;55.17;;;24.58;;
84231;SDS011;74368;48.022;13.830;2024-03-02T09:16:50;48.65;;;23.20;;
84231;SDS011;74368;48.022;13.830;2024-03-02T09:19:16;52.15;;;21.58;;
84231;SDS011;74368;48.022;13.830;2024-03-02T09:21:41;42.50;;;19.95;;
84231;SDS011;74368;48.022;13.830;2024-03-02T09:24:08;56.47;;;22.73;;
84231;SDS011;74368;48.022;13.830;2024-03-02T09:26:35;48.88;;;22.95;;
84231;SDS011;74368;48.022;13.830;2024-03-02T09:29:01;49.53;;;22.38;;
84231;SDS011;74368;48.022;13.830;2024-03-02T09:31:26;42.35;;;19.80;;
84231;SDS011;74368;48.022;13.830;2024-03-02T09:33:52;46.28;;;20.40;;
84231;SDS011;74368;48.022;13.830;2024-03-02T09:36:21;43.50;;;20.67;;
84231;SDS011;74368;48.022;13.830;2024-03-02T09:38:49;39.08;;;19.10;;
84231;SDS011;74368;48.022;13.830;2024-03-02T09:41:14;39.72;;;18.50;;
84231;SDS011;74368;48.022;13.830;2024-03-02T09:43:40;40.58;;;18.45;;
84231;SDS011;74368;48.022;13.830;2024-03-02T09:46:06;39.88;;;19.02;;
84231;SDS011;74368;48.022;13.830;2024-03-02T09:48:35;40.47;;;19.08;;
84231;SDS011;74368;48.022;13.830;2024-03-02T09:51:01;44.50;;;20.13;;
84231;SDS011;74368;48.022;13.830;2024-03-02T09:53:30;44.28;;;20.85;;
84231;SDS011;74368;48.022;13.830;2024-03-02T09:55:56;39.20;;;18.75;;
84231;SDS011;74368;48.022;13.830;2024-03-02T09:58:22;43.95;;;19.67;;
84231;SDS011;74368;48.022;13.830;2024-03-02T10:00:47;41.35;;;18.63;;
84231;SDS011;74368;48.022;13.830;2024-03-02T10:03:14;42.83;;;19.35;;
84231;SDS011;74368;48.022;13.830;2024-03-02T10:05:39;38.13;;;17.38;;
84231;SDS011;74368;48.022;13.830;2024-03-02T10:08:05;39.88;;;17.02;;
84231;SDS011;74368;48.022;13.830;2024-03-02T10:10:49;35.80;;;16.55;;
84231;SDS011;74368;48.022;13.830;2024-03-02T10:13:15;35.30;;;18.67;;
84231;SDS011;74368;48.022;13.830;2024-03-02T10:15:41;36.65;;;17.85;;
84231;SDS011;74368;48.022;13.830;2024-03-02T10:18:10;35.38;;;16.13;;
84231;SDS011;74368;48.022;13.830;2024-03-02T10:20:37;37.05;;;17.30;;
84231;SDS011;74368;48.022;13.830;2024-03-02T10:23:09;32.70;;;17.30;;
84231;SDS011;74368;48.022;13.830;2024-03-02T10:25:42;31.35;;;16.25;;
84231;SDS011;74368;48.022;13.830;2024-03-02T10:28:08;33.22;;;18.33;;
84231;SDS011;74368;48.022;13.830;2024-03-02T10:30:34;34.75;;;17.10;;
84231;SDS011;74368;48.022;13.830;2024-03-02T10:33:02;32.50;;;17.13;;
84231;SDS011;74368;48.022;13.830;2024-03-02T10:35:30;28.25;;;16.42;;
84231;SDS011;74368;48.022;13.830;2024-03-02T10:37:58;29.60;;;16.30;;
84231;SDS011;74368;48.022;13.830;2024-03-02T10:40:26;33.83;;;18.65;;
84231;SDS011;74368;48.022;13.830;2024-03-02T10:42:52;30.33;;;15.73;;
84231;SDS011;74368;48.022;13.830;2024-03-02T10:45:19;33.00;;;17.65;;
84231;SDS011;74368;48.022;13.830;2024-03-02T10:47:46;32.83;;;16.83;;
84231;SDS011;74368;48.022;13.830;2024-03-02T10:50:12;28.00;;;16.15;;
84231;SDS011;74368;48.022;13.830;2024-03-02T10:52:38;25.55;;;16.00;;
84231;SDS011;74368;48.022;13.830;2024-03-02T10:55:07;32.00;;;16.70;;
84231;SDS011;74368;48.022;13.830;2024-03-02T10:57:53;31.80;;;17.30;;
84231;SDS011;74368;48.022;13.830;2024-03-02T11:00:21;29.02;;;17.45;;
84231;SDS011;74368;48.022;13.830;2024-03-02T11:02:57;27.20;;;15.93;;
84231;SDS011;74368;48.022;13.830;2024-03-02T11:05:31;27.52;;;15.73;;
84231;SDS011;74368;48.022;13.830;2024-03-02T11:08:02;26.27;;;15.70;;
84231;SDS011;74368;48.022;13.830;2024-03-02T11:10:41;26.75;;;15.82;;
84231;SDS011;74368;48.022;13.830;2024-03-02T11:13:16;29.02;;;16.67;;
84231;SDS011;74368;48.022;13.830;2024-03-02T11:15:49;29.48;;;15.95;;
84231;SDS011;74368;48.022;13.830;2024-03-02T11:18:20;29.60;;;16.70;;
84231;SDS011;74368;48.022;13.830;2024-03-02T11:20:46;28.65;;;17.75;;
84231;SDS011;74368;48.022;13.830;2024-03-02T11:23:12;28.75;;;16.83;;
84231;SDS011;74368;48.022;13.830;2024-03-02T11:25:41;33.05;;;17.10;;
84231;SDS011;74368;48.022;13.830;2024-03-02T11:28:07;30.15;;;16.35;;
84231;SDS011;74368;48.022;13.830;2024-03-02T11:35:36;28.92;;;15.90;;
84231;SDS011;74368;48.022;13.830;2024-03-02T11:38:03;32.08;;;16.92;;
84231;SDS011;74368;48.022;13.830;2024-03-02T11:40:29;29.73;;;15.55;;
84231;SDS011;74368;48.022;13.830;2024-03-02T11:42:55;29.40;;;16.70;;
84231;SDS011;74368;48.022;13.830;2024-03-02T11:45:25;29.15;;;16.85;;
84231;SDS011;74368;48.022;13.830;2024-03-02T11:47:51;28.23;;;16.45;;
84231;SDS011;74368;48.022;13.830;2024-03-02T11:50:29;28.20;;;15.40;;
84231;SDS011;74368;48.022;13.830;2024-03-02T11:53:08;30.60;;;16.95;;
84231;SDS011;74368;48.022;13.830;2024-03-02T11:55:35;32.90;;;16.40;;
84231;SDS011;74368;48.022;13.830;2024-03-02T11:58:04;30.45;;;16.75;;
84231;SDS011;74368;48.022;13.830;2024-03-02T12:00:29;34.42;;;17.63;;
84231;SDS011;74368;48.022;13.830;2024-03-02T12:03:05;31.10;;;17.10;;
84231;SDS011;74368;48.022;13.830;2024-03-02T12:05:32;30.17;;;16.60;;
84231;SDS011;74368;48.022;13.830;2024-03-02T12:07:58;33.80;;;17.13;;
84231;SDS011;74368;48.022;13.830;2024-03-02T12:10:27;34.70;;;17.98;;
84231;SDS011;74368;48.022;13.830;2024-03-02T12:12:57;33.60;;;16.40;;
84231;SDS011;74368;48.022;13.830;2024-03-02T12:15:24;27.35;;;16.33;;
84231;SDS011;74368;48.022;13.830;2024-03-02T12:18:08;32.47;;;16.25;;
84231;SDS011;74368;48.022;13.830;2024-03-02T12:20:38;30.95;;;15.27;;
84231;SDS011;74368;48.022;13.830;2024-03-02T12:23:04;28.65;;;15.80;;
84231;SDS011;74368;48.022;13.830;2024-03-02T12:25:32;30.90;;;14.15;;
84231;SDS011;74368;48.022;13.830;2024-03-02T12:27:59;25.55;;;14.30;;
84231;SDS011;74368;48.022;13.830;2024-03-02T12:30:27;29.33;;;15.15;;
84231;SDS011;74368;48.022;13.830;2024-03-02T12:32:54;30.52;;;16.10;;
84231;SDS011;74368;48.022;13.830;2024-03-02T12:35:20;28.60;;;14.35;;
84231;SDS011;74368;48.022;13.830;2024-03-02T12:37:49;31.45;;;16.10;;
84231;SDS011;74368;48.022;13.830;2024-03-02T12:40:16;27.85;;;15.35;;
84231;SDS011;74368;48.022;13.830;2024-03-02T12:42:43;28.52;;;15.00;;
84231;SDS011;74368;48.022;13.830;2024-03-02T12:45:15;28.85;;;14.18;;
84231;SDS011;74368;48.022;13.830;2024-03-02T12:47:41;29.67;;;14.68;;
84231;SDS011;74368;48.022;13.830;2024-03-02T12:50:07;27.90;;;14.15;;
84231;SDS011;74368;48.022;13.830;2024-03-02T12:52:34;33.20;;;15.02;;
84231;SDS011;74368;48.022;13.830;2024-03-02T12:55:00;28.20;;;14.90;;
84231;SDS011;74368;48.022;13.830;2024-03-02T12:57:28;27.95;;;15.07;;
84231;SDS011;74368;48.022;13.830;2024-03-02T13:00:03;25.92;;;13.95;;
84231;SDS011;74368;48.022;13.830;2024-03-02T13:02:38;28.35;;;15.15;;
84231;SDS011;74368;48.022;13.830;2024-03-02T13:05:06;28.90;;;15.15;;
84231;SDS011;74368;48.022;13.830;2024-03-02T13:07:36;28.50;;;15.15;;
84231;SDS011;74368;48.022;13.830;2024-03-02T13:10:02;27.63;;;14.63;;
84231;SDS011;74368;48.022;13.830;2024-03-02T13:12:28;28.55;;;15.38;;
84231;SDS011;74368;48.022;13.830;2024-03-02T13:14:55;29.67;;;15.30;;
84231;SDS011;74368;48.022;13.830;2024-03-02T13:17:22;36.17;;;15.63;;
84231;SDS011;74368;48.022;13.830;2024-03-02T13:19:57;29.50;;;16.67;;
84231;SDS011;74368;48.022;13.830;2024-03-02T13:22:24;32.75;;;16.70;;
84231;SDS011;74368;48.022;13.830;2024-03-02T13:24:50;30.75;;;16.75;;
84231;SDS011;74368;48.022;13.830;2024-03-02T13:27:17;29.13;;;16.77;;
84231;SDS011;74368;48.022;13.830;2024-03-02T13:30:08;30.65;;;16.00;;
84231;SDS011;74368;48.022;13.830;2024-03-02T13:33:04;30.70;;;15.85;;
84231;SDS011;74368;48.022;13.830;2024-03-02T13:35:29;27.70;;;16.77;;
84231;SDS011;74368;48.022;13.830;2024-03-02T13:37:55;27.65;;;15.48;;
84231;SDS011;74368;48.022;13.830;2024-03-02T13:40:22;28.58;;;14.55;;
84231;SDS011;74368;48.022;13.830;2024-03-02T13:42:48;26.83;;;14.77;;
84231;SDS011;74368;48.022;13.830;2024-03-02T13:45:15;27.45;;;15.13;;
84231;SDS011;74368;48.022;13.830;2024-03-02T13:47:41;27.50;;;14.85;;
84231;SDS011;74368;48.022;13.830;2024-03-02T13:50:07;26.33;;;14.27;;
84231;SDS011;74368;48.022;13.830;2024-03-02T13:52:32;27.33;;;16.08;;
84231;SDS011;74368;48.022;13.830;2024-03-02T13:54:59;23.20;;;13.43;;
84231;SDS011;74368;48.022;13.830;2024-03-02T13:57:24;27.70;;;14.80;;
84231;SDS011;74368;48.022;13.830;2024-03-02T13:59:50;26.90;;;13.75;;
84231;SDS011;74368;48.022;13.830;2024-03-02T14:02:16;26.83;;;14.00;;
84231;SDS011;74368;48.022;13.830;2024-03-02T14:04:42;27.27;;;15.57;;
84231;SDS011;74368;48.022;13.830;2024-03-02T14:07:07;26.75;;;14.20;;
84231;SDS011;74368;48.022;13.830;2024-03-02T14:09:32;28.58;;;15.70;;
84231;SDS011;74368;48.022;13.830;2024-03-02T14:11:58;29.33;;;15.57;;
84231;SDS011;74368;48.022;13.830;2024-03-02T14:14:25;25.02;;;14.75;;
84231;SDS011;74368;48.022;13.830;2024-03-02T14:16:52;24.90;;;14.57;;
84231;SDS011;74368;48.022;13.830;2024-03-02T14:19:17;26.58;;;14.82;;
84231;SDS011;74368;48.022;13.830;2024-03-02T14:21:43;26.83;;;13.77;;